createdAt,value
2017-10-20T00:01:08.477Z,13.10
2017-10-20T00:03:36.297Z,12.90
2017-10-20T00:06:03.387Z,12.90
2017-10-20T00:08:30.434Z,12.90
2017-10-20T00:10:57.511Z,12.90
2017-10-20T00:13:24.589Z,12.80
2017-10-20T00:15:52.394Z,12.90
2017-10-20T00:18:19.440Z,12.90
2017-10-20T00:20:46.613Z,12.90
2017-10-20T00:23:13.676Z,12.90
2017-10-20T00:25:40.741Z,12.90
2017-10-20T00:28:08.592Z,12.90
2017-10-20T00:30:35.684Z,12.80
2017-10-20T00:33:02.727Z,12.80
2017-10-20T00:35:29.787Z,12.80
2017-10-20T00:37:56.866Z,12.70
2017-10-20T00:40:23.927Z,12.60
2017-10-20T00:42:50.983Z,12.60
2017-10-20T00:45:18.087Z,12.60
2017-10-20T00:47:45.146Z,12.60
2017-10-20T00:50:12.213Z,12.60
2017-10-20T00:52:39.281Z,12.60
2017-10-20T00:55:06.358Z,12.60
2017-10-20T00:57:34.189Z,12.50
2017-10-20T01:00:01.247Z,12.50
2017-10-20T01:02:28.302Z,12.50
2017-10-20T01:04:55.355Z,12.50
2017-10-20T01:07:23.196Z,12.40
2017-10-20T01:09:50.264Z,12.30
2017-10-20T01:12:17.316Z,12.40
2017-10-20T01:14:44.375Z,12.30
2017-10-20T01:17:12.201Z,12.30
2017-10-20T01:19:39.259Z,12.40
2017-10-20T01:22:06.348Z,12.40
2017-10-20T01:24:33.448Z,12.30
2017-10-20T01:27:00.704Z,12.30
2017-10-20T01:29:27.827Z,12.40
2017-10-20T01:31:54.977Z,12.40
2017-10-20T01:34:22.093Z,12.50
2017-10-20T01:36:49.934Z,12.40
2017-10-20T01:39:17.013Z,12.40
2017-10-20T01:41:44.828Z,12.50
2017-10-20T01:44:11.894Z,12.50
2017-10-20T01:46:38.958Z,12.50
2017-10-20T01:49:06.019Z,12.50
2017-10-20T01:51:33.843Z,12.30
2017-10-20T01:54:00.907Z,12.30
2017-10-20T01:56:27.984Z,12.30
2017-10-20T01:58:55.850Z,12.30
2017-10-20T02:01:23.746Z,12.30
2017-10-20T02:03:50.794Z,12.20
2017-10-20T02:06:17.847Z,12.20
2017-10-20T02:08:44.918Z,12.30
2017-10-20T02:11:12.076Z,12.30
2017-10-20T02:13:39.150Z,12.20
2017-10-20T02:16:06.205Z,12.10
2017-10-20T02:18:34.621Z,12.10
2017-10-20T02:21:01.712Z,12.10
2017-10-20T02:23:29.555Z,12.00
2017-10-20T02:25:56.630Z,12.00
2017-10-20T02:28:23.694Z,12.00
2017-10-20T02:30:50.750Z,12.10
2017-10-20T02:33:18.566Z,12.10
2017-10-20T02:35:45.628Z,12.10
2017-10-20T02:38:12.691Z,12.10
2017-10-20T02:40:39.814Z,12.10
2017-10-20T02:43:07.003Z,12.10
2017-10-20T02:45:34.079Z,12.20
2017-10-20T02:48:01.892Z,12.10
2017-10-20T02:50:29.008Z,12.10
2017-10-20T02:52:56.062Z,12.20
2017-10-20T02:55:23.121Z,12.10
2017-10-20T02:57:50.169Z,12.10
2017-10-20T03:00:17.231Z,12.10
2017-10-20T03:02:44.298Z,12.10
2017-10-20T03:05:11.350Z,12.00
2017-10-20T03:07:38.431Z,12.00
2017-10-20T03:10:05.494Z,12.00
2017-10-20T03:12:32.678Z,12.00
2017-10-20T03:14:59.913Z,12.00
2017-10-20T03:17:26.978Z,12.00
2017-10-20T03:19:54.080Z,12.00
2017-10-20T03:22:21.126Z,11.80
2017-10-20T03:24:48.962Z,11.80
2017-10-20T03:27:16.019Z,11.80
2017-10-20T03:29:43.080Z,11.80
2017-10-20T03:32:10.197Z,11.90
2017-10-20T03:34:37.258Z,11.90
2017-10-20T03:37:04.334Z,11.80
2017-10-20T03:39:32.172Z,11.60
2017-10-20T03:41:59.238Z,11.60
2017-10-20T03:44:27.056Z,11.60
2017-10-20T03:46:54.112Z,11.50
2017-10-20T03:49:21.192Z,11.60
2017-10-20T03:51:48.249Z,11.70
2017-10-20T03:54:16.080Z,11.70
2017-10-20T03:56:43.134Z,11.70
2017-10-20T03:59:10.186Z,11.70
2017-10-20T04:01:37.251Z,11.70
2017-10-20T04:04:04.327Z,11.60
2017-10-20T04:06:32.154Z,11.50
2017-10-20T04:08:59.344Z,11.50
2017-10-20T04:11:26.421Z,11.60
2017-10-20T04:13:54.262Z,11.70
2017-10-20T04:16:21.313Z,11.70
2017-10-20T04:18:48.387Z,11.80
2017-10-20T04:21:15.460Z,11.80
2017-10-20T04:23:42.527Z,11.80
2017-10-20T04:26:09.624Z,11.70
2017-10-20T04:28:36.675Z,11.60
2017-10-20T04:31:03.743Z,11.60
2017-10-20T04:33:30.850Z,11.60
2017-10-20T04:35:57.914Z,11.70
2017-10-20T04:38:24.977Z,11.70
2017-10-20T04:40:52.063Z,11.70
2017-10-20T04:43:19.135Z,11.70
2017-10-20T04:45:46.969Z,11.60
2017-10-20T04:48:14.020Z,11.60
2017-10-20T04:50:41.066Z,11.60
2017-10-20T04:53:08.116Z,11.60
2017-10-20T04:55:35.168Z,11.70
2017-10-20T04:58:02.232Z,11.70
2017-10-20T05:00:29.294Z,11.70
2017-10-20T05:02:57.161Z,11.60
2017-10-20T05:05:25.000Z,11.60
2017-10-20T05:07:52.060Z,11.60
2017-10-20T05:10:19.119Z,11.60
2017-10-20T05:12:46.953Z,11.80
2017-10-20T05:15:14.836Z,11.80
2017-10-20T05:17:41.929Z,11.80
2017-10-20T05:20:09.085Z,11.90
2017-10-20T05:22:36.153Z,11.90
2017-10-20T05:25:03.217Z,11.90
2017-10-20T05:27:30.261Z,11.80
2017-10-20T05:29:57.323Z,11.90
2017-10-20T05:32:25.178Z,12.00
2017-10-20T05:34:52.398Z,12.00
2017-10-20T05:37:19.652Z,12.00
2017-10-20T05:39:46.707Z,12.10
2017-10-20T05:42:13.824Z,12.00
2017-10-20T05:44:41.003Z,12.00
2017-10-20T05:47:08.173Z,12.00
2017-10-20T05:49:35.246Z,12.00
2017-10-20T05:52:02.460Z,12.10
2017-10-20T05:54:29.535Z,12.10
2017-10-20T05:56:56.604Z,12.20
2017-10-20T05:59:23.654Z,12.20
2017-10-20T06:01:50.707Z,12.20
2017-10-20T06:04:17.768Z,12.20
2017-10-20T06:06:44.845Z,12.20
2017-10-20T06:09:11.896Z,12.10
2017-10-20T06:11:39.002Z,12.00
2017-10-20T06:14:06.056Z,11.90
2017-10-20T06:16:34.164Z,11.80
2017-10-20T06:19:01.222Z,11.80
2017-10-20T06:21:28.295Z,11.80
2017-10-20T06:23:55.362Z,11.80
2017-10-20T06:26:22.417Z,11.80
2017-10-20T06:28:49.717Z,11.80
2017-10-20T06:31:16.783Z,11.80
2017-10-20T06:33:43.871Z,11.70
2017-10-20T06:36:11.720Z,11.80
2017-10-20T06:38:38.836Z,11.80
2017-10-20T06:41:05.975Z,11.70
2017-10-20T06:43:33.022Z,11.50
2017-10-20T06:46:00.109Z,11.60
2017-10-20T06:48:27.184Z,11.60
2017-10-20T06:50:55.016Z,11.70
2017-10-20T06:53:22.076Z,11.70
2017-10-20T06:55:49.142Z,11.80
2017-10-20T06:58:16.475Z,11.90
2017-10-20T07:00:43.533Z,12.00
2017-10-20T07:03:10.663Z,12.00
2017-10-20T07:05:38.507Z,12.20
2017-10-20T07:08:05.597Z,12.20
2017-10-20T07:10:32.655Z,12.30
2017-10-20T07:12:59.791Z,12.20
2017-10-20T07:15:26.901Z,12.30
2017-10-20T07:17:53.975Z,12.30
2017-10-20T07:20:21.778Z,12.30
2017-10-20T07:22:48.951Z,12.40
2017-10-20T07:25:16.776Z,12.50
2017-10-20T07:27:43.831Z,12.50
2017-10-20T07:30:10.934Z,12.50
2017-10-20T07:32:37.988Z,12.60
2017-10-20T07:35:05.037Z,12.60
2017-10-20T07:37:32.203Z,12.70
2017-10-20T07:39:59.326Z,12.90
2017-10-20T07:42:26.398Z,13.00
2017-10-20T07:44:53.465Z,13.00
2017-10-20T07:47:20.580Z,13.20
2017-10-20T07:49:47.688Z,13.40
2017-10-20T07:52:14.756Z,13.40
2017-10-20T07:54:41.812Z,13.40
2017-10-20T07:57:08.876Z,13.40
2017-10-20T07:59:36.022Z,13.40
2017-10-20T08:02:03.078Z,13.40
2017-10-20T08:04:30.147Z,13.50
2017-10-20T08:06:57.222Z,13.40
2017-10-20T08:09:24.317Z,13.30
2017-10-20T08:11:51.559Z,13.30
2017-10-20T08:14:18.615Z,13.20
2017-10-20T08:16:45.659Z,13.30
2017-10-20T08:19:12.717Z,13.30
2017-10-20T08:21:39.782Z,13.40
2017-10-20T08:24:06.831Z,13.40
2017-10-20T08:26:33.897Z,13.50
2017-10-20T08:29:00.977Z,13.60
2017-10-20T08:31:28.879Z,13.70
2017-10-20T08:33:55.952Z,13.70
2017-10-20T08:36:23.768Z,14.00
2017-10-20T08:38:50.838Z,14.00
2017-10-20T08:41:18.093Z,14.10
2017-10-20T08:43:45.169Z,14.20
2017-10-20T08:46:13.009Z,14.30
2017-10-20T08:48:40.076Z,14.30
2017-10-20T08:51:07.138Z,14.30
2017-10-20T08:53:34.203Z,14.40
2017-10-20T08:56:01.306Z,14.40
2017-10-20T08:58:28.362Z,14.50
2017-10-20T09:00:55.520Z,14.70
2017-10-20T09:03:22.603Z,14.80
2017-10-20T09:05:49.666Z,14.90
2017-10-20T09:08:17.491Z,15.20
2017-10-20T09:10:44.551Z,15.20
2017-10-20T09:13:11.621Z,15.30
2017-10-20T09:15:38.692Z,15.40
2017-10-20T09:18:06.524Z,15.60
2017-10-20T09:20:33.612Z,15.60
2017-10-20T09:23:00.705Z,15.70
2017-10-20T09:25:27.750Z,15.80
2017-10-20T09:27:54.868Z,16.00
2017-10-20T09:30:21.924Z,16.00
2017-10-20T09:32:49.015Z,15.80
2017-10-20T09:35:16.365Z,15.90
2017-10-20T09:37:43.430Z,16.10
2017-10-20T09:40:10.479Z,16.30
2017-10-20T09:42:37.555Z,16.50
2017-10-20T09:45:05.387Z,16.80
2017-10-20T09:47:32.435Z,16.80
2017-10-20T09:49:59.508Z,17.20
2017-10-20T09:52:26.572Z,17.40
2017-10-20T09:54:53.657Z,17.60
2017-10-20T09:57:20.735Z,17.90
2017-10-20T09:59:47.794Z,18.20
2017-10-20T10:02:14.889Z,18.50
2017-10-20T10:04:42.029Z,18.70
2017-10-20T10:07:09.137Z,18.80
2017-10-20T10:09:36.201Z,18.90
2017-10-20T10:12:04.614Z,19.10
2017-10-20T10:14:31.691Z,19.10
2017-10-20T10:16:58.779Z,19.20
2017-10-20T10:19:26.614Z,19.90
2017-10-20T10:21:53.679Z,19.90
2017-10-20T10:24:20.755Z,20.50
2017-10-20T10:26:49.042Z,20.80
2017-10-20T10:29:16.571Z,20.80
2017-10-20T10:31:44.082Z,20.90
2017-10-20T10:34:11.592Z,21.10
2017-10-20T10:36:39.891Z,20.70
2017-10-20T10:39:07.404Z,20.70
2017-10-20T10:41:34.922Z,20.50
2017-10-20T10:44:02.448Z,20.40
2017-10-20T10:46:30.729Z,20.10
2017-10-20T10:48:59.079Z,20.00
2017-10-20T10:51:26.595Z,20.00
2017-10-20T10:53:54.122Z,19.90
2017-10-20T10:56:22.408Z,20.10
2017-10-20T10:58:49.947Z,20.10
2017-10-20T11:01:17.469Z,20.40
2017-10-20T11:03:44.981Z,21.20
2017-10-20T11:06:39.962Z,23.30
2017-10-20T11:09:17.246Z,23.30
2017-10-20T11:11:56.449Z,23.80
2017-10-20T11:14:23.989Z,23.50
2017-10-20T11:16:51.493Z,23.00
2017-10-20T11:19:19.028Z,22.70
2017-10-20T11:21:46.544Z,22.40
2017-10-20T11:24:14.818Z,21.70
2017-10-20T11:26:43.135Z,21.40
2017-10-20T11:29:10.696Z,21.30
2017-10-20T11:31:38.217Z,21.00
2017-10-20T11:34:06.520Z,20.50
2017-10-20T11:36:34.069Z,20.40
2017-10-20T11:39:01.582Z,20.00
2017-10-20T11:41:29.108Z,19.80
2017-10-20T11:43:56.638Z,19.50
2017-10-20T11:46:24.231Z,19.20
2017-10-20T11:48:51.751Z,19.10
2017-10-20T11:51:19.293Z,19.00
2017-10-20T11:53:46.828Z,18.80
2017-10-20T11:56:14.344Z,18.60
2017-10-20T11:58:41.854Z,18.50
2017-10-20T12:01:09.388Z,18.40
2017-10-20T12:03:36.898Z,18.30
2017-10-20T12:06:04.399Z,18.40
2017-10-20T12:08:32.063Z,18.40
2017-10-20T12:10:59.598Z,18.40
2017-10-20T12:13:27.917Z,18.40
2017-10-20T12:15:55.438Z,18.40
2017-10-20T12:18:22.960Z,18.50
2017-10-20T12:20:50.486Z,18.50
2017-10-20T12:23:17.995Z,18.60
2017-10-20T12:25:45.503Z,18.60
2017-10-20T12:28:13.026Z,18.50
2017-10-20T12:30:41.324Z,18.70
2017-10-20T12:33:08.952Z,18.70
2017-10-20T12:35:36.457Z,18.70
2017-10-20T12:38:03.956Z,18.60
2017-10-20T12:40:31.473Z,18.60
2017-10-20T12:42:58.997Z,18.50
2017-10-20T12:45:27.276Z,18.60
2017-10-20T12:47:55.586Z,18.50
2017-10-20T12:50:23.121Z,18.50
2017-10-20T12:52:50.630Z,18.40
2017-10-20T12:55:18.148Z,18.30
2017-10-20T12:57:45.722Z,18.30
2017-10-20T13:00:13.223Z,18.30
2017-10-20T13:02:40.756Z,18.30
2017-10-20T13:05:08.271Z,18.40
2017-10-20T13:07:36.559Z,18.50
2017-10-20T13:10:04.073Z,18.50
2017-10-20T13:12:32.345Z,18.40
2017-10-20T13:14:59.881Z,18.40
2017-10-20T13:17:27.419Z,18.40
2017-10-20T13:19:54.931Z,18.30
2017-10-20T13:22:22.743Z,18.40
2017-10-20T13:24:50.252Z,18.40
2017-10-20T13:27:17.765Z,18.40
2017-10-20T13:29:45.276Z,18.50
2017-10-20T13:32:12.804Z,18.40
2017-10-20T13:34:40.376Z,18.30
2017-10-20T13:37:07.899Z,18.30
2017-10-20T13:39:35.444Z,18.10
2017-10-20T13:42:03.705Z,17.80
2017-10-20T13:44:31.209Z,17.80
2017-10-20T13:46:58.747Z,17.80
2017-10-20T13:49:26.249Z,17.90
2017-10-20T13:51:54.541Z,17.80
2017-10-20T13:54:22.165Z,17.80
2017-10-20T13:56:49.667Z,17.90
2017-10-20T13:59:17.173Z,18.00
2017-10-20T14:01:44.704Z,18.10
2017-10-20T14:04:12.991Z,18.10
2017-10-20T14:06:40.505Z,18.10
2017-10-20T14:09:08.047Z,18.10
2017-10-20T14:11:36.372Z,18.20
2017-10-20T14:14:03.904Z,18.30
2017-10-20T14:16:31.496Z,18.30
2017-10-20T14:18:59.038Z,18.30
2017-10-20T14:21:26.678Z,18.20
2017-10-20T14:23:54.182Z,18.20
2017-10-20T14:26:22.473Z,18.30
2017-10-20T14:28:50.856Z,18.30
2017-10-20T14:31:18.390Z,18.20
2017-10-20T14:33:46.718Z,18.30
2017-10-20T14:36:14.270Z,18.30
2017-10-20T14:38:41.776Z,18.30
2017-10-20T14:41:09.286Z,18.30
2017-10-20T14:43:36.789Z,18.40
2017-10-20T14:46:04.423Z,18.30
2017-10-20T14:48:31.937Z,18.10
2017-10-20T14:51:00.222Z,18.10
2017-10-20T14:53:28.513Z,18.20
2017-10-20T14:55:56.057Z,18.10
2017-10-20T14:58:24.546Z,18.10
2017-10-20T15:00:52.854Z,18.10
2017-10-20T15:03:20.408Z,18.10
2017-10-20T15:05:51.022Z,17.90
2017-10-20T15:08:18.649Z,17.80
2017-10-20T15:10:46.170Z,17.70
2017-10-20T15:13:13.681Z,17.50
2017-10-20T15:15:41.192Z,17.60
2017-10-20T15:18:08.712Z,17.50
2017-10-20T15:20:37.030Z,17.40
2017-10-20T15:23:04.624Z,17.40
2017-10-20T15:25:32.132Z,17.50
2017-10-20T15:27:59.718Z,17.50
2017-10-20T15:30:27.232Z,17.50
2017-10-20T15:32:55.493Z,17.40
2017-10-20T15:35:23.762Z,17.20
2017-10-20T15:37:51.567Z,17.20
2017-10-20T15:40:19.094Z,17.20
2017-10-20T15:42:47.380Z,17.20
2017-10-20T15:45:15.687Z,17.20
2017-10-20T15:47:43.232Z,17.20
2017-10-20T15:50:10.830Z,17.30
2017-10-20T15:52:38.353Z,17.30
2017-10-20T15:55:05.871Z,17.30
2017-10-20T15:57:33.376Z,17.30
2017-10-20T16:00:00.918Z,17.40
2017-10-20T16:02:29.179Z,17.00
2017-10-20T16:04:56.884Z,17.00
2017-10-20T16:07:24.445Z,17.10
2017-10-20T16:09:51.989Z,17.10
2017-10-20T16:12:19.551Z,17.00
2017-10-20T16:14:47.108Z,17.10
2017-10-20T16:17:14.645Z,17.00
2017-10-20T16:19:43.073Z,17.00
2017-10-20T16:22:10.584Z,17.00
2017-10-20T16:24:38.163Z,17.10
2017-10-20T16:27:05.692Z,17.10
2017-10-20T16:29:33.280Z,17.00
2017-10-20T16:32:00.880Z,17.00
2017-10-20T16:34:28.423Z,17.00
2017-10-20T16:36:55.998Z,17.00
2017-10-20T16:48:04.010Z,16.40
2017-10-20T16:59:10.042Z,16.10
2017-10-20T17:01:38.381Z,16.30
2017-10-20T17:04:05.940Z,16.30
2017-10-20T17:06:33.546Z,16.50
2017-10-20T17:09:01.055Z,16.70
2017-10-20T17:11:28.569Z,16.70
2017-10-20T17:13:56.092Z,16.80
2017-10-20T17:16:23.667Z,16.90
2017-10-20T17:18:51.171Z,16.90
2017-10-20T17:21:18.684Z,16.90
2017-10-20T17:23:46.983Z,16.70
2017-10-20T17:26:15.248Z,16.70
2017-10-20T17:28:43.762Z,16.80
2017-10-20T17:31:11.288Z,16.80
2017-10-20T17:33:39.556Z,16.90
2017-10-20T17:36:07.076Z,16.90
2017-10-20T17:38:34.617Z,17.00
2017-10-20T17:41:02.189Z,16.90
2017-10-20T17:43:29.785Z,16.90
2017-10-20T17:45:57.319Z,17.00
2017-10-20T17:48:24.870Z,17.20
2017-10-20T17:50:52.377Z,17.00
2017-10-20T17:53:20.641Z,17.10
2017-10-20T17:55:48.644Z,17.10
2017-10-20T17:58:17.154Z,17.10
2017-10-20T18:00:44.676Z,17.10
2017-10-20T18:03:12.963Z,17.10
2017-10-20T18:05:41.276Z,17.10
2017-10-20T18:08:08.823Z,17.00
2017-10-20T18:10:36.348Z,17.10
2017-10-20T18:13:05.625Z,17.20
2017-10-20T18:15:33.151Z,17.20
2017-10-20T18:18:00.848Z,17.20
2017-10-20T18:20:29.628Z,17.20
2017-10-20T18:22:57.951Z,17.20
2017-10-20T18:25:26.241Z,17.00
2017-10-20T18:27:53.763Z,17.00
2017-10-20T18:30:22.096Z,16.80
2017-10-20T18:32:49.617Z,16.80
2017-10-20T18:35:17.993Z,16.60
2017-10-20T18:37:45.515Z,16.60
2017-10-20T18:40:13.046Z,16.60
2017-10-20T18:42:40.711Z,16.50
2017-10-20T18:45:08.233Z,16.40
2017-10-20T18:47:35.871Z,16.40
2017-10-20T18:50:03.402Z,16.40
2017-10-20T18:52:30.941Z,16.50
2017-10-20T18:54:58.528Z,16.50
2017-10-20T18:57:32.856Z,16.40
2017-10-20T19:00:00.425Z,16.40
2017-10-20T19:02:27.953Z,16.40
2017-10-20T19:04:55.491Z,16.30
2017-10-20T19:07:23.007Z,16.20
2017-10-20T19:09:50.523Z,16.20
2017-10-20T19:12:18.085Z,16.30
2017-10-20T19:14:45.636Z,16.40
2017-10-20T19:17:13.139Z,16.40
2017-10-20T19:19:41.055Z,16.30
2017-10-20T19:22:08.682Z,16.20
2017-10-20T19:24:36.200Z,16.20
2017-10-20T19:27:03.755Z,16.00
2017-10-20T19:29:31.306Z,15.80
2017-10-20T19:31:59.119Z,15.60
2017-10-20T19:34:26.620Z,15.20
2017-10-20T19:36:54.168Z,15.00
2017-10-20T19:39:22.474Z,14.90
2017-10-20T19:41:50.020Z,14.80
2017-10-20T19:44:17.589Z,14.80
2017-10-20T19:46:45.309Z,14.70
2017-10-20T19:49:12.847Z,14.70
2017-10-20T19:51:40.384Z,14.70
2017-10-20T19:54:08.355Z,14.70
2017-10-20T19:56:35.901Z,14.80
2017-10-20T19:59:03.427Z,15.00
2017-10-20T20:01:31.107Z,14.90
2017-10-20T20:03:58.649Z,14.90
2017-10-20T20:06:26.195Z,14.80
2017-10-20T20:08:53.703Z,14.80
2017-10-20T20:11:21.223Z,14.80
2017-10-20T20:13:48.766Z,14.80
2017-10-20T20:16:16.323Z,14.80
2017-10-20T20:18:43.845Z,14.70
2017-10-20T20:21:11.662Z,14.80
2017-10-20T20:23:39.190Z,14.80
2017-10-20T20:26:06.732Z,14.80
2017-10-20T20:28:34.261Z,14.80
2017-10-20T20:31:02.539Z,14.60
2017-10-20T20:33:33.604Z,14.60
2017-10-20T20:36:01.164Z,14.60
2017-10-20T20:38:28.743Z,14.60
2017-10-20T20:40:56.288Z,14.50
2017-10-20T20:43:24.052Z,14.60
2017-10-20T20:45:51.714Z,14.50
2017-10-20T20:48:19.232Z,14.50
2017-10-20T20:50:46.761Z,14.40
2017-10-20T20:53:14.308Z,14.40
2017-10-20T20:55:41.814Z,14.40
2017-10-20T20:58:09.328Z,14.40
2017-10-20T21:00:36.876Z,14.30
2017-10-20T21:03:04.380Z,14.30
2017-10-20T21:05:31.892Z,14.30
2017-10-20T21:07:59.484Z,14.10
2017-10-20T21:10:27.155Z,14.10
2017-10-20T21:12:54.722Z,14.00
2017-10-20T21:15:22.414Z,14.10
2017-10-20T21:17:49.935Z,14.00
2017-10-20T21:20:17.560Z,14.00
2017-10-20T21:22:45.087Z,14.00
2017-10-20T21:25:13.349Z,14.00
2017-10-20T21:27:40.881Z,14.00
2017-10-20T21:30:08.440Z,14.00
2017-10-20T21:32:35.965Z,13.90
2017-10-20T21:35:03.490Z,13.90
2017-10-20T21:37:31.805Z,13.90
2017-10-20T21:39:59.512Z,13.90
2017-10-20T21:42:27.024Z,13.80
2017-10-20T21:44:54.668Z,13.80
2017-10-20T21:47:22.951Z,13.70
2017-10-20T21:49:51.231Z,13.70
2017-10-20T21:52:18.918Z,13.70
2017-10-20T21:54:46.505Z,13.70
2017-10-20T21:57:14.147Z,13.70
2017-10-20T21:59:41.673Z,13.80
2017-10-20T22:02:09.944Z,13.70
2017-10-20T22:04:38.329Z,13.70
2017-10-20T22:07:05.855Z,13.70
2017-10-20T22:09:33.365Z,13.60
2017-10-20T22:12:00.876Z,13.60
2017-10-20T22:14:28.409Z,13.60
2017-10-20T22:16:55.949Z,13.60
2017-10-20T22:19:23.444Z,13.60
2017-10-20T22:21:50.962Z,13.60
2017-10-20T22:24:18.470Z,13.70
2017-10-20T22:26:45.992Z,13.70
2017-10-20T22:29:13.498Z,13.70
2017-10-20T22:31:41.052Z,13.70
2017-10-20T22:34:08.574Z,13.70
2017-10-20T22:36:36.098Z,13.80
2017-10-20T22:39:03.626Z,13.80
2017-10-20T22:41:31.136Z,13.90
2017-10-20T22:43:58.642Z,13.90
2017-10-20T22:46:26.163Z,13.80
2017-10-20T22:48:53.699Z,13.80
2017-10-20T22:51:21.222Z,13.70
2017-10-20T22:53:48.715Z,13.70
2017-10-20T22:56:18.957Z,13.70
2017-10-20T22:58:46.476Z,13.70
2017-10-20T23:01:13.992Z,13.70
2017-10-20T23:03:41.505Z,13.70
2017-10-20T23:06:09.764Z,13.60
2017-10-20T23:08:37.303Z,13.60
2017-10-20T23:11:04.816Z,13.70
2017-10-20T23:13:32.328Z,13.70
2017-10-20T23:15:59.862Z,13.60
2017-10-20T23:18:27.391Z,13.50
2017-10-20T23:20:54.921Z,13.50
2017-10-20T23:23:22.429Z,13.40
2017-10-20T23:25:49.970Z,13.40
2017-10-20T23:28:17.480Z,13.50
2017-10-20T23:30:44.982Z,13.40
2017-10-20T23:33:13.262Z,13.30
2017-10-20T23:35:41.535Z,13.20
2017-10-20T23:38:09.847Z,13.30
2017-10-20T23:40:37.392Z,13.20
2017-10-20T23:43:04.941Z,13.20
2017-10-20T23:45:32.452Z,13.10
2017-10-20T23:47:59.975Z,13.10
2017-10-20T23:50:27.489Z,13.10
2017-10-20T23:52:55.772Z,13.20
2017-10-20T23:55:23.271Z,13.20
2017-10-20T23:57:50.808Z,13.30
